sensor_id;sensor_type;location;lat;lon;timestamp;P1;durP1;ratioP1;P2;durP2;ratioP2
9100;SDS011;4586;52.518;13.486;2023-02-02T00:02:49;5.23;;;1.20;;
9100;SDS011;4586;52.518;13.486;2023-02-02T00:06:51;6.07;;;1.03;;
9100;SDS011;4586;52.518;13.486;2023-02-02T00:10:54;7.57;;;0.87;;
9100;SDS011;4586;52.518;13.486;2023-02-02T00:14:56;1.27;;;0.60;;
9100;SDS011;4586;52.518;13.486;2023-02-02T00:19:02;0.60;;;0.33;;
9100;SDS011;4586;52.518;13.486;2023-02-02T00:23:05;1.90;;;0.60;;
9100;SDS011;4586;52.518;13.486;2023-02-02T00:27:07;2.40;;;1.17;;
9100;SDS011;4586;52.518;13.486;2023-02-02T00:31:10;0.77;;;0.47;;
9100;SDS011;4586;52.518;13.486;2023-02-02T00:35:12;2.97;;;1.10;;
9100;SDS011;4586;52.518;13.486;2023-02-02T00:39:19;2.60;;;0.90;;
9100;SDS011;4586;52.518;13.486;2023-02-02T00:43:22;6.47;;;1.17;;
9100;SDS011;4586;52.518;13.486;2023-02-02T00:47:24;2.37;;;1.10;;
9100;SDS011;4586;52.518;13.486;2023-02-02T00:51:27;3.40;;;1.33;;
9100;SDS011;4586;52.518;13.486;2023-02-02T00:55:29;3.40;;;1.20;;
9100;SDS011;4586;52.518;13.486;2023-02-02T00:59:31;1.30;;;0.70;;
9100;SDS011;4586;52.518;13.486;2023-02-02T01:03:33;0.60;;;0.53;;
9100;SDS011;4586;52.518;13.486;2023-02-02T01:07:36;4.40;;;1.10;;
9100;SDS011;4586;52.518;13.486;2023-02-02T01:11:38;1.47;;;0.53;;
9100;SDS011;4586;52.518;13.486;2023-02-02T01:15:41;1.17;;;0.60;;
9100;SDS011;4586;52.518;13.486;2023-02-02T01:19:44;2.90;;;0.57;;
9100;SDS011;4586;52.518;13.486;2023-02-02T01:23:46;1.77;;;0.63;;
9100;SDS011;4586;52.518;13.486;2023-02-02T01:27:48;4.07;;;1.37;;
9100;SDS011;4586;52.518;13.486;2023-02-02T01:31:51;1.63;;;0.53;;
9100;SDS011;4586;52.518;13.486;2023-02-02T01:35:53;1.53;;;0.83;;
9100;SDS011;4586;52.518;13.486;2023-02-02T01:39:56;3.57;;;0.73;;
9100;SDS011;4586;52.518;13.486;2023-02-02T01:44:00;3.27;;;1.00;;
9100;SDS011;4586;52.518;13.486;2023-02-02T01:48:02;1.90;;;0.77;;
9100;SDS011;4586;52.518;13.486;2023-02-02T01:52:05;2.47;;;0.60;;
9100;SDS011;4586;52.518;13.486;2023-02-02T01:56:07;3.47;;;0.83;;
9100;SDS011;4586;52.518;13.486;2023-02-02T02:00:12;3.33;;;1.30;;
9100;SDS011;4586;52.518;13.486;2023-02-02T02:04:15;4.73;;;0.73;;
9100;SDS011;4586;52.518;13.486;2023-02-02T02:08:19;0.50;;;0.30;;
9100;SDS011;4586;52.518;13.486;2023-02-02T02:12:22;0.83;;;0.40;;
9100;SDS011;4586;52.518;13.486;2023-02-02T02:16:35;3.40;;;1.00;;
9100;SDS011;4586;52.518;13.486;2023-02-02T02:20:54;1.70;;;1.00;;
9100;SDS011;4586;52.518;13.486;2023-02-02T02:33:15;1.90;;;0.50;;
9100;SDS011;4586;52.518;13.486;2023-02-02T02:37:28;2.37;;;1.07;;
9100;SDS011;4586;52.518;13.486;2023-02-02T02:41:33;3.10;;;0.90;;
9100;SDS011;4586;52.518;13.486;2023-02-02T02:45:39;2.63;;;0.53;;
9100;SDS011;4586;52.518;13.486;2023-02-02T02:49:43;3.87;;;0.27;;
9100;SDS011;4586;52.518;13.486;2023-02-02T02:53:46;2.40;;;0.70;;
9100;SDS011;4586;52.518;13.486;2023-02-02T02:57:58;3.00;;;1.00;;
9100;SDS011;4586;52.518;13.486;2023-02-02T03:02:09;1.60;;;0.63;;
9100;SDS011;4586;52.518;13.486;2023-02-02T03:06:20;4.00;;;1.43;;
9100;SDS011;4586;52.518;13.486;2023-02-02T03:10:23;1.10;;;0.63;;
9100;SDS011;4586;52.518;13.486;2023-02-02T03:14:32;3.13;;;0.97;;
9100;SDS011;4586;52.518;13.486;2023-02-02T03:18:35;0.30;;;0.30;;
9100;SDS011;4586;52.518;13.486;2023-02-02T03:22:37;2.37;;;0.50;;
9100;SDS011;4586;52.518;13.486;2023-02-02T03:26:40;3.00;;;0.67;;
9100;SDS011;4586;52.518;13.486;2023-02-02T03:30:42;1.63;;;0.73;;
9100;SDS011;4586;52.518;13.486;2023-02-02T03:34:45;5.10;;;0.83;;
9100;SDS011;4586;52.518;13.486;2023-02-02T03:38:47;1.80;;;0.70;;
9100;SDS011;4586;52.518;13.486;2023-02-02T03:42:49;1.70;;;0.87;;
9100;SDS011;4586;52.518;13.486;2023-02-02T03:46:52;0.43;;;0.33;;
9100;SDS011;4586;52.518;13.486;2023-02-02T03:50:54;1.47;;;0.47;;
9100;SDS011;4586;52.518;13.486;2023-02-02T03:54:56;3.70;;;1.00;;
9100;SDS011;4586;52.518;13.486;2023-02-02T03:58:59;2.27;;;1.00;;
9100;SDS011;4586;52.518;13.486;2023-02-02T04:03:01;2.30;;;0.73;;
9100;SDS011;4586;52.518;13.486;2023-02-02T04:07:03;4.27;;;0.67;;
9100;SDS011;4586;52.518;13.486;2023-02-02T04:11:08;2.77;;;0.57;;
9100;SDS011;4586;52.518;13.486;2023-02-02T04:15:10;0.93;;;0.60;;
9100;SDS011;4586;52.518;13.486;2023-02-02T04:19:12;1.57;;;0.77;;
9100;SDS011;4586;52.518;13.486;2023-02-02T04:23:14;4.60;;;0.87;;
9100;SDS011;4586;52.518;13.486;2023-02-02T04:27:16;3.60;;;0.77;;
9100;SDS011;4586;52.518;13.486;2023-02-02T04:31:19;3.40;;;0.80;;
9100;SDS011;4586;52.518;13.486;2023-02-02T04:35:21;1.73;;;0.90;;
9100;SDS011;4586;52.518;13.486;2023-02-02T04:39:24;1.53;;;0.70;;
9100;SDS011;4586;52.518;13.486;2023-02-02T04:43:26;1.00;;;0.60;;
9100;SDS011;4586;52.518;13.486;2023-02-02T04:47:28;0.83;;;0.33;;
9100;SDS011;4586;52.518;13.486;2023-02-02T04:51:30;1.80;;;0.53;;
9100;SDS011;4586;52.518;13.486;2023-02-02T04:55:36;1.83;;;0.77;;
9100;SDS011;4586;52.518;13.486;2023-02-02T04:59:38;2.37;;;0.53;;
9100;SDS011;4586;52.518;13.486;2023-02-02T05:03:42;1.50;;;0.53;;
9100;SDS011;4586;52.518;13.486;2023-02-02T05:07:45;2.23;;;0.73;;
9100;SDS011;4586;52.518;13.486;2023-02-02T05:11:47;2.57;;;0.73;;
9100;SDS011;4586;52.518;13.486;2023-02-02T05:15:49;2.87;;;0.80;;
9100;SDS011;4586;52.518;13.486;2023-02-02T05:19:51;2.03;;;0.50;;
9100;SDS011;4586;52.518;13.486;2023-02-02T05:23:53;4.50;;;1.10;;
9100;SDS011;4586;52.518;13.486;2023-02-02T05:27:55;2.43;;;0.80;;
9100;SDS011;4586;52.518;13.486;2023-02-02T05:31:58;6.73;;;0.80;;
9100;SDS011;4586;52.518;13.486;2023-02-02T05:36:00;0.53;;;0.30;;
9100;SDS011;4586;52.518;13.486;2023-02-02T05:40:02;2.67;;;0.80;;
9100;SDS011;4586;52.518;13.486;2023-02-02T05:44:05;0.47;;;0.23;;
9100;SDS011;4586;52.518;13.486;2023-02-02T05:48:08;2.23;;;1.00;;
9100;SDS011;4586;52.518;13.486;2023-02-02T05:52:13;0.37;;;0.37;;
9100;SDS011;4586;52.518;13.486;2023-02-02T05:56:16;0.67;;;0.37;;
9100;SDS011;4586;52.518;13.486;2023-02-02T06:00:19;0.23;;;0.23;;
9100;SDS011;4586;52.518;13.486;2023-02-02T06:04:21;1.10;;;0.40;;
9100;SDS011;4586;52.518;13.486;2023-02-02T06:08:23;1.03;;;0.63;;
9100;SDS011;4586;52.518;13.486;2023-02-02T06:12:25;2.60;;;1.00;;
9100;SDS011;4586;52.518;13.486;2023-02-02T06:16:27;2.00;;;0.80;;
9100;SDS011;4586;52.518;13.486;2023-02-02T06:20:30;0.83;;;0.60;;
9100;SDS011;4586;52.518;13.486;2023-02-02T06:24:32;4.47;;;0.90;;
9100;SDS011;4586;52.518;13.486;2023-02-02T06:28:34;0.40;;;0.40;;
9100;SDS011;4586;52.518;13.486;2023-02-02T06:32:36;3.30;;;1.13;;
9100;SDS011;4586;52.518;13.486;2023-02-02T06:36:38;0.53;;;0.53;;
9100;SDS011;4586;52.518;13.486;2023-02-02T06:40:40;2.03;;;0.90;;
9100;SDS011;4586;52.518;13.486;2023-02-02T06:44:43;0.53;;;0.30;;
9100;SDS011;4586;52.518;13.486;2023-02-02T06:48:45;2.93;;;1.00;;
9100;SDS011;4586;52.518;13.486;2023-02-02T06:52:50;1.13;;;0.50;;
9100;SDS011;4586;52.518;13.486;2023-02-02T06:56:53;0.30;;;0.27;;
9100;SDS011;4586;52.518;13.486;2023-02-02T07:01:06;3.90;;;0.70;;
9100;SDS011;4586;52.518;13.486;2023-02-02T07:05:09;0.63;;;0.40;;
9100;SDS011;4586;52.518;13.486;2023-02-02T07:09:11;2.57;;;1.10;;
9100;SDS011;4586;52.518;13.486;2023-02-02T07:13:13;1.73;;;1.00;;
9100;SDS011;4586;52.518;13.486;2023-02-02T07:17:15;3.47;;;0.80;;
9100;SDS011;4586;52.518;13.486;2023-02-02T07:21:21;1.93;;;0.40;;
9100;SDS011;4586;52.518;13.486;2023-02-02T07:25:24;0.90;;;0.67;;
9100;SDS011;4586;52.518;13.486;2023-02-02T07:29:27;2.87;;;0.50;;
9100;SDS011;4586;52.518;13.486;2023-02-02T07:33:29;3.40;;;0.90;;
9100;SDS011;4586;52.518;13.486;2023-02-02T07:37:31;1.90;;;0.50;;
9100;SDS011;4586;52.518;13.486;2023-02-02T07:41:34;1.97;;;0.50;;
9100;SDS011;4586;52.518;13.486;2023-02-02T07:45:36;2.23;;;0.70;;
9100;SDS011;4586;52.518;13.486;2023-02-02T07:49:39;2.17;;;0.93;;
9100;SDS011;4586;52.518;13.486;2023-02-02T07:53:41;1.63;;;0.70;;
9100;SDS011;4586;52.518;13.486;2023-02-02T07:57:46;2.87;;;0.73;;
9100;SDS011;4586;52.518;13.486;2023-02-02T08:01:48;1.50;;;0.50;;
9100;SDS011;4586;52.518;13.486;2023-02-02T08:05:50;4.30;;;0.80;;
9100;SDS011;4586;52.518;13.486;2023-02-02T08:09:53;2.83;;;0.60;;
9100;SDS011;4586;52.518;13.486;2023-02-02T08:13:58;2.23;;;0.77;;
9100;SDS011;4586;52.518;13.486;2023-02-02T08:18:01;2.47;;;1.20;;
9100;SDS011;4586;52.518;13.486;2023-02-02T08:22:03;0.60;;;0.20;;
9100;SDS011;4586;52.518;13.486;2023-02-02T08:30:10;2.87;;;0.70;;
9100;SDS011;4586;52.518;13.486;2023-02-02T08:34:13;1.27;;;1.03;;
9100;SDS011;4586;52.518;13.486;2023-02-02T08:38:15;1.20;;;0.53;;
9100;SDS011;4586;52.518;13.486;2023-02-02T08:42:17;2.70;;;0.60;;
9100;SDS011;4586;52.518;13.486;2023-02-02T08:46:19;0.40;;;0.40;;
9100;SDS011;4586;52.518;13.486;2023-02-02T08:50:22;0.33;;;0.23;;
9100;SDS011;4586;52.518;13.486;2023-02-02T08:54:24;0.80;;;0.47;;
9100;SDS011;4586;52.518;13.486;2023-02-02T08:58:27;3.80;;;0.97;;
9100;SDS011;4586;52.518;13.486;2023-02-02T09:02:29;1.03;;;0.70;;
9100;SDS011;4586;52.518;13.486;2023-02-02T09:06:32;2.60;;;0.97;;
9100;SDS011;4586;52.518;13.486;2023-02-02T09:10:37;5.00;;;0.90;;
9100;SDS011;4586;52.518;13.486;2023-02-02T09:14:39;4.90;;;0.87;;
9100;SDS011;4586;52.518;13.486;2023-02-02T09:18:41;1.00;;;0.60;;
9100;SDS011;4586;52.518;13.486;2023-02-02T09:22:44;1.80;;;0.57;;
9100;SDS011;4586;52.518;13.486;2023-02-02T09:26:46;2.57;;;0.83;;
9100;SDS011;4586;52.518;13.486;2023-02-02T09:30:48;1.10;;;0.60;;
9100;SDS011;4586;52.518;13.486;2023-02-02T09:34:50;4.17;;;0.60;;
9100;SDS011;4586;52.518;13.486;2023-02-02T09:38:53;3.73;;;0.67;;
9100;SDS011;4586;52.518;13.486;2023-02-02T09:43:05;2.37;;;0.60;;
9100;SDS011;4586;52.518;13.486;2023-02-02T09:51:15;2.43;;;0.90;;
9100;SDS011;4586;52.518;13.486;2023-02-02T09:55:41;1.00;;;0.70;;
9100;SDS011;4586;52.518;13.486;2023-02-02T09:59:44;1.13;;;0.87;;
9100;SDS011;4586;52.518;13.486;2023-02-02T10:03:55;1.10;;;0.47;;
9100;SDS011;4586;52.518;13.486;2023-02-02T10:08:00;2.03;;;0.70;;
9100;SDS011;4586;52.518;13.486;2023-02-02T10:16:15;1.40;;;0.77;;
9100;SDS011;4586;52.518;13.486;2023-02-02T10:20:21;3.67;;;1.17;;
9100;SDS011;4586;52.518;13.486;2023-02-02T10:24:27;2.43;;;0.60;;
9100;SDS011;4586;52.518;13.486;2023-02-02T10:32:41;0.70;;;0.53;;
9100;SDS011;4586;52.518;13.486;2023-02-02T10:41:01;1.03;;;0.60;;
9100;SDS011;4586;52.518;13.486;2023-02-02T10:45:14;1.67;;;0.30;;
9100;SDS011;4586;52.518;13.486;2023-02-02T10:53:25;1.17;;;0.50;;
9100;SDS011;4586;52.518;13.486;2023-02-02T11:01:40;2.63;;;0.30;;
9100;SDS011;4586;52.518;13.486;2023-02-02T11:05:42;0.90;;;0.30;;
9100;SDS011;4586;52.518;13.486;2023-02-02T11:09:45;1.13;;;0.50;;
9100;SDS011;4586;52.518;13.486;2023-02-02T11:13:58;0.87;;;0.40;;
9100;SDS011;4586;52.518;13.486;2023-02-02T11:18:14;4.97;;;0.87;;
9100;SDS011;4586;52.518;13.486;2023-02-02T11:26:44;2.40;;;0.37;;
9100;SDS011;4586;52.518;13.486;2023-02-02T11:30:48;1.10;;;0.77;;
9100;SDS011;4586;52.518;13.486;2023-02-02T11:39:17;1.90;;;0.80;;
9100;SDS011;4586;52.518;13.486;2023-02-02T11:43:28;4.83;;;0.90;;
9100;SDS011;4586;52.518;13.486;2023-02-02T11:47:31;1.43;;;1.10;;
9100;SDS011;4586;52.518;13.486;2023-02-02T11:51:33;1.27;;;0.83;;
9100;SDS011;4586;52.518;13.486;2023-02-02T11:55:36;0.97;;;0.70;;
9100;SDS011;4586;52.518;13.486;2023-02-02T11:59:39;2.37;;;1.17;;
9100;SDS011;4586;52.518;13.486;2023-02-02T12:03:43;3.70;;;1.03;;
9100;SDS011;4586;52.518;13.486;2023-02-02T12:07:48;1.47;;;0.50;;
9100;SDS011;4586;52.518;13.486;2023-02-02T12:16:21;2.87;;;0.70;;
9100;SDS011;4586;52.518;13.486;2023-02-02T12:24:34;0.50;;;0.40;;
9100;SDS011;4586;52.518;13.486;2023-02-02T12:29:01;6.27;;;2.50;;
9100;SDS011;4586;52.518;13.486;2023-02-02T12:45:35;0.70;;;0.50;;
9100;SDS011;4586;52.518;13.486;2023-02-02T12:50:03;7.10;;;1.73;;
9100;SDS011;4586;52.518;13.486;2023-02-02T13:11:15;1.93;;;0.90;;
9100;SDS011;4586;52.518;13.486;2023-02-02T13:15:19;4.83;;;1.10;;
9100;SDS011;4586;52.518;13.486;2023-02-02T13:19:34;1.93;;;0.70;;
9100;SDS011;4586;52.518;13.486;2023-02-02T13:23:42;3.10;;;1.07;;
9100;SDS011;4586;52.518;13.486;2023-02-02T13:27:45;1.93;;;0.97;;
9100;SDS011;4586;52.518;13.486;2023-02-02T13:31:53;1.40;;;0.63;;
9100;SDS011;4586;52.518;13.486;2023-02-02T13:48:23;1.27;;;0.70;;
9100;SDS011;4586;52.518;13.486;2023-02-02T13:52:45;3.40;;;0.60;;
9100;SDS011;4586;52.518;13.486;2023-02-02T14:01:06;0.47;;;0.30;;
9100;SDS011;4586;52.518;13.486;2023-02-02T14:05:19;1.20;;;0.40;;
9100;SDS011;4586;52.518;13.486;2023-02-02T14:09:23;0.70;;;0.70;;
9100;SDS011;4586;52.518;13.486;2023-02-02T14:13:28;1.87;;;0.80;;
9100;SDS011;4586;52.518;13.486;2023-02-02T14:26:20;0.97;;;0.60;;
9100;SDS011;4586;52.518;13.486;2023-02-02T14:30:12;1.37;;;0.60;;
9100;SDS011;4586;52.518;13.486;2023-02-02T14:38:36;1.13;;;0.80;;
9100;SDS011;4586;52.518;13.486;2023-02-02T14:47:01;0.50;;;0.43;;
9100;SDS011;4586;52.518;13.486;2023-02-02T14:51:10;1.87;;;0.63;;
9100;SDS011;4586;52.518;13.486;2023-02-02T14:55:17;1.13;;;0.80;;
9100;SDS011;4586;52.518;13.486;2023-02-02T15:07:51;1.03;;;0.43;;
9100;SDS011;4586;52.518;13.486;2023-02-02T15:16:05;4.60;;;1.80;;
9100;SDS011;4586;52.518;13.486;2023-02-02T15:20:12;3.93;;;2.10;;
9100;SDS011;4586;52.518;13.486;2023-02-02T15:24:17;0.70;;;0.70;;
9100;SDS011;4586;52.518;13.486;2023-02-02T15:32:23;2.03;;;1.07;;
9100;SDS011;4586;52.518;13.486;2023-02-02T15:36:26;3.93;;;1.70;;
9100;SDS011;4586;52.518;13.486;2023-02-02T15:40:30;2.20;;;1.20;;
9100;SDS011;4586;52.518;13.486;2023-02-02T15:44:33;2.67;;;1.23;;
9100;SDS011;4586;52.518;13.486;2023-02-02T15:48:37;2.50;;;0.93;;
9100;SDS011;4586;52.518;13.486;2023-02-02T15:52:44;0.77;;;0.77;;
9100;SDS011;4586;52.518;13.486;2023-02-02T15:56:47;3.23;;;1.00;;
9100;SDS011;4586;52.518;13.486;2023-02-02T16:00:56;7.70;;;3.77;;
9100;SDS011;4586;52.518;13.486;2023-02-02T16:04:59;1.57;;;0.77;;
9100;SDS011;4586;52.518;13.486;2023-02-02T16:09:04;1.23;;;0.70;;
9100;SDS011;4586;52.518;13.486;2023-02-02T16:13:15;0.73;;;0.57;;
9100;SDS011;4586;52.518;13.486;2023-02-02T16:17:19;1.63;;;0.80;;
9100;SDS011;4586;52.518;13.486;2023-02-02T16:21:22;4.23;;;0.77;;
9100;SDS011;4586;52.518;13.486;2023-02-02T16:25:26;1.80;;;0.80;;
9100;SDS011;4586;52.518;13.486;2023-02-02T16:29:30;4.87;;;2.03;;
9100;SDS011;4586;52.518;13.486;2023-02-02T16:33:36;2.20;;;0.87;;
9100;SDS011;4586;52.518;13.486;2023-02-02T16:37:39;2.70;;;1.00;;
9100;SDS011;4586;52.518;13.486;2023-02-02T16:41:41;2.00;;;0.73;;
9100;SDS011;4586;52.518;13.486;2023-02-02T16:49:48;3.40;;;0.90;;
9100;SDS011;4586;52.518;13.486;2023-02-02T16:57:53;2.57;;;1.43;;
9100;SDS011;4586;52.518;13.486;2023-02-02T17:01:57;2.07;;;0.97;;
9100;SDS011;4586;52.518;13.486;2023-02-02T17:05:59;2.17;;;0.93;;
9100;SDS011;4586;52.518;13.486;2023-02-02T17:14:18;2.90;;;0.80;;
9100;SDS011;4586;52.518;13.486;2023-02-02T17:18:20;2.23;;;0.80;;
9100;SDS011;4586;52.518;13.486;2023-02-02T17:22:23;2.57;;;1.10;;
9100;SDS011;4586;52.518;13.486;2023-02-02T17:26:26;3.30;;;2.30;;
9100;SDS011;4586;52.518;13.486;2023-02-02T17:30:28;1.53;;;0.90;;
9100;SDS011;4586;52.518;13.486;2023-02-02T17:34:30;2.30;;;1.13;;
9100;SDS011;4586;52.518;13.486;2023-02-02T17:38:33;3.00;;;1.17;;
9100;SDS011;4586;52.518;13.486;2023-02-02T17:42:35;1.97;;;1.20;;
9100;SDS011;4586;52.518;13.486;2023-02-02T17:46:37;1.60;;;1.07;;
9100;SDS011;4586;52.518;13.486;2023-02-02T17:50:40;1.53;;;1.30;;
9100;SDS011;4586;52.518;13.486;2023-02-02T17:54:43;3.23;;;1.20;;
9100;SDS011;4586;52.518;13.486;2023-02-02T17:58:45;2.27;;;0.87;;
9100;SDS011;4586;52.518;13.486;2023-02-02T18:02:47;2.70;;;1.90;;
9100;SDS011;4586;52.518;13.486;2023-02-02T18:06:50;3.20;;;1.20;;
9100;SDS011;4586;52.518;13.486;2023-02-02T18:10:52;2.40;;;1.40;;
9100;SDS011;4586;52.518;13.486;2023-02-02T18:14:55;1.50;;;1.27;;
9100;SDS011;4586;52.518;13.486;2023-02-02T18:18:57;2.57;;;1.23;;
9100;SDS011;4586;52.518;13.486;2023-02-02T18:22:59;2.20;;;1.50;;
9100;SDS011;4586;52.518;13.486;2023-02-02T18:27:01;2.43;;;1.33;;
9100;SDS011;4586;52.518;13.486;2023-02-02T18:31:10;1.73;;;1.20;;
9100;SDS011;4586;52.518;13.486;2023-02-02T18:35:12;1.70;;;1.30;;
9100;SDS011;4586;52.518;13.486;2023-02-02T18:39:15;3.60;;;1.83;;
9100;SDS011;4586;52.518;13.486;2023-02-02T18:43:17;3.20;;;1.70;;
9100;SDS011;4586;52.518;13.486;2023-02-02T18:47:19;3.90;;;1.70;;
9100;SDS011;4586;52.518;13.486;2023-02-02T18:51:21;10.27;;;6.13;;
9100;SDS011;4586;52.518;13.486;2023-02-02T18:55:23;7.53;;;2.20;;
9100;SDS011;4586;52.518;13.486;2023-02-02T18:59:26;2.27;;;1.80;;
9100;SDS011;4586;52.518;13.486;2023-02-02T19:03:28;6.87;;;2.47;;
9100;SDS011;4586;52.518;13.486;2023-02-02T19:07:31;4.43;;;2.00;;
9100;SDS011;4586;52.518;13.486;2023-02-02T19:11:37;6.33;;;2.63;;
9100;SDS011;4586;52.518;13.486;2023-02-02T19:15:40;4.50;;;2.20;;
9100;SDS011;4586;52.518;13.486;2023-02-02T19:19:42;4.97;;;2.53;;
9100;SDS011;4586;52.518;13.486;2023-02-02T19:23:44;9.60;;;2.87;;
9100;SDS011;4586;52.518;13.486;2023-02-02T19:27:46;4.00;;;2.40;;
9100;SDS011;4586;52.518;13.486;2023-02-02T19:31:55;5.53;;;2.27;;
9100;SDS011;4586;52.518;13.486;2023-02-02T19:35:59;4.43;;;2.20;;
9100;SDS011;4586;52.518;13.486;2023-02-02T19:44:10;4.50;;;2.60;;
9100;SDS011;4586;52.518;13.486;2023-02-02T19:48:17;4.00;;;2.40;;
9100;SDS011;4586;52.518;13.486;2023-02-02T19:52:21;4.90;;;2.63;;
9100;SDS011;4586;52.518;13.486;2023-02-02T19:56:24;3.23;;;2.43;;
9100;SDS011;4586;52.518;13.486;2023-02-02T20:00:28;5.70;;;2.37;;
9100;SDS011;4586;52.518;13.486;2023-02-02T20:04:30;7.57;;;3.20;;
9100;SDS011;4586;52.518;13.486;2023-02-02T20:08:35;7.60;;;3.70;;
9100;SDS011;4586;52.518;13.486;2023-02-02T20:12:39;5.63;;;3.33;;
9100;SDS011;4586;52.518;13.486;2023-02-02T20:16:41;4.60;;;2.93;;
9100;SDS011;4586;52.518;13.486;2023-02-02T20:20:46;8.27;;;3.67;;
9100;SDS011;4586;52.518;13.486;2023-02-02T20:24:48;7.17;;;3.97;;
9100;SDS011;4586;52.518;13.486;2023-02-02T20:28:52;7.33;;;4.10;;
9100;SDS011;4586;52.518;13.486;2023-02-02T20:32:56;5.70;;;3.87;;
9100;SDS011;4586;52.518;13.486;2023-02-02T20:41:00;7.03;;;3.80;;
9100;SDS011;4586;52.518;13.486;2023-02-02T20:45:03;8.10;;;4.20;;
9100;SDS011;4586;52.518;13.486;2023-02-02T20:49:05;8.10;;;3.90;;
9100;SDS011;4586;52.518;13.486;2023-02-02T20:53:07;6.77;;;3.83;;
9100;SDS011;4586;52.518;13.486;2023-02-02T20:57:09;9.47;;;4.53;;
9100;SDS011;4586;52.518;13.486;2023-02-02T21:01:12;7.97;;;4.43;;
9100;SDS011;4586;52.518;13.486;2023-02-02T21:05:14;7.47;;;3.50;;
9100;SDS011;4586;52.518;13.486;2023-02-02T21:09:16;5.83;;;3.63;;
9100;SDS011;4586;52.518;13.486;2023-02-02T21:13:18;6.90;;;3.47;;
9100;SDS011;4586;52.518;13.486;2023-02-02T21:17:21;7.37;;;4.03;;
9100;SDS011;4586;52.518;13.486;2023-02-02T21:21:23;8.27;;;4.00;;
9100;SDS011;4586;52.518;13.486;2023-02-02T21:25:25;6.37;;;3.13;;
9100;SDS011;4586;52.518;13.486;2023-02-02T21:29:31;6.57;;;3.87;;
9100;SDS011;4586;52.518;13.486;2023-02-02T21:33:33;7.07;;;4.20;;
9100;SDS011;4586;52.518;13.486;2023-02-02T21:37:35;6.23;;;3.80;;
9100;SDS011;4586;52.518;13.486;2023-02-02T21:41:37;10.43;;;4.13;;
9100;SDS011;4586;52.518;13.486;2023-02-02T21:45:40;5.13;;;3.37;;
9100;SDS011;4586;52.518;13.486;2023-02-02T21:49:43;5.90;;;3.63;;
9100;SDS011;4586;52.518;13.486;2023-02-02T21:53:45;8.23;;;3.83;;
9100;SDS011;4586;52.518;13.486;2023-02-02T21:57:47;6.27;;;3.53;;
9100;SDS011;4586;52.518;13.486;2023-02-02T22:01:50;7.17;;;3.87;;
9100;SDS011;4586;52.518;13.486;2023-02-02T22:05:58;7.57;;;3.93;;
9100;SDS011;4586;52.518;13.486;2023-02-02T22:10:08;5.50;;;3.30;;
9100;SDS011;4586;52.518;13.486;2023-02-02T22:14:20;5.23;;;2.80;;
9100;SDS011;4586;52.518;13.486;2023-02-02T22:18:23;8.00;;;3.53;;
9100;SDS011;4586;52.518;13.486;2023-02-02T22:22:28;4.03;;;3.03;;
9100;SDS011;4586;52.518;13.486;2023-02-02T22:26:33;6.50;;;3.27;;
9100;SDS011;4586;52.518;13.486;2023-02-02T22:30:36;4.13;;;2.73;;
9100;SDS011;4586;52.518;13.486;2023-02-02T22:34:38;4.83;;;2.83;;
9100;SDS011;4586;52.518;13.486;2023-02-02T22:38:40;7.20;;;2.40;;
9100;SDS011;4586;52.518;13.486;2023-02-02T22:42:42;2.93;;;2.23;;
9100;SDS011;4586;52.518;13.486;2023-02-02T22:46:45;4.80;;;2.83;;
9100;SDS011;4586;52.518;13.486;2023-02-02T22:50:47;5.23;;;2.80;;
9100;SDS011;4586;52.518;13.486;2023-02-02T22:54:49;3.37;;;2.73;;
9100;SDS011;4586;52.518;13.486;2023-02-02T22:58:51;5.00;;;2.07;;
9100;SDS011;4586;52.518;13.486;2023-02-02T23:02:54;3.53;;;2.43;;
9100;SDS011;4586;52.518;13.486;2023-02-02T23:06:56;3.87;;;2.50;;
9100;SDS011;4586;52.518;13.486;2023-02-02T23:10:59;4.93;;;3.03;;
9100;SDS011;4586;52.518;13.486;2023-02-02T23:15:01;5.33;;;2.60;;
9100;SDS011;4586;52.518;13.486;2023-02-02T23:19:03;6.47;;;2.37;;
9100;SDS011;4586;52.518;13.486;2023-02-02T23:23:05;7.47;;;2.63;;
9100;SDS011;4586;52.518;13.486;2023-02-02T23:27:08;5.87;;;3.10;;
9100;SDS011;4586;52.518;13.486;2023-02-02T23:31:10;5.17;;;3.03;;
9100;SDS011;4586;52.518;13.486;2023-02-02T23:35:12;6.43;;;3.37;;
9100;SDS011;4586;52.518;13.486;2023-02-02T23:39:14;5.17;;;2.80;;
9100;SDS011;4586;52.518;13.486;2023-02-02T23:43:17;5.73;;;3.13;;
9100;SDS011;4586;52.518;13.486;2023-02-02T23:47:19;7.30;;;2.77;;
9100;SDS011;4586;52.518;13.486;2023-02-02T23:51:21;4.50;;;2.60;;
9100;SDS011;4586;52.518;13.486;2023-02-02T23:55:23;9.07;;;4.33;;
9100;SDS011;4586;52.518;13.486;2023-02-02T23:59:26;7.30;;;3.13;;
